IBB9B GCLP-GCRR
Flight info
| Callsign | IBB9B |
|---|---|
| Flight time | N/A |
| Altitude | 14000 |
| Route | RASEP |
| Aircraft | AT76/M-SDFGIRY/S |
Departure
| Time | N/A |
|---|---|
| Airport | Gran Canaria Airport (GCLP) |
Arrival
| Time | 2026-05-03 20:24 |
|---|---|
| Airport | César Manrique-Lanzarote Airport (GCRR) |
| Time | Latitude | Longitude | Altitude | Speed | Heading |
|---|---|---|---|---|---|
| 2026-05-03 20:15 | 28.72379 | -13.95686 | 7827 ft | 261 kts | 61° |
| 2026-05-03 20:15 | 28.73125 | -13.93838 | 7557 ft | 252 kts | 66° |
| 2026-05-03 20:15 | 28.73757 | -13.92008 | 7293 ft | 245 kts | 67° |
| 2026-05-03 20:15 | 28.74345 | -13.90213 | 7031 ft | 238 kts | 68° |
| 2026-05-03 20:16 | 28.74895 | -13.88460 | 6767 ft | 226 kts | 68° |
| 2026-05-03 20:16 | 28.75390 | -13.86844 | 6503 ft | 206 kts | 68° |
| 2026-05-03 20:16 | 28.75842 | -13.85355 | 6227 ft | 192 kts | 67° |
| 2026-05-03 20:16 | 28.76279 | -13.83911 | 5953 ft | 198 kts | 68° |
| 2026-05-03 20:17 | 28.76734 | -13.82385 | 5689 ft | 208 kts | 69° |
| 2026-05-03 20:17 | 28.77207 | -13.80806 | 5423 ft | 213 kts | 68° |
| 2026-05-03 20:17 | 28.77742 | -13.79220 | 5160 ft | 213 kts | 56° |
| 2026-05-03 20:17 | 28.78601 | -13.77904 | 4886 ft | 210 kts | 52° |
| 2026-05-03 20:18 | 28.79443 | -13.76532 | 4616 ft | 210 kts | 44° |
| 2026-05-03 20:18 | 28.80634 | -13.75615 | 4350 ft | 204 kts | 28° |
| 2026-05-03 20:18 | 28.81610 | -13.74438 | 4077 ft | 208 kts | 54° |
| 2026-05-03 20:18 | 28.82363 | -13.73038 | 3803 ft | 200 kts | 56° |
| 2026-05-03 20:19 | 28.83036 | -13.71739 | 3509 ft | 182 kts | 57° |
| 2026-05-03 20:19 | 28.83643 | -13.70542 | 3234 ft | 166 kts | 57° |
| 2026-05-03 20:19 | 28.84168 | -13.69436 | 2954 ft | 153 kts | 56° |
| 2026-05-03 20:19 | 28.84640 | -13.68403 | 2666 ft | 142 kts | 56° |
| 2026-05-03 20:20 | 28.85091 | -13.67446 | 2376 ft | 133 kts | 57° |
| 2026-05-03 20:20 | 28.85512 | -13.66554 | 2288 ft | 118 kts | 53° |
| 2026-05-03 20:20 | 28.85973 | -13.65814 | 2124 ft | 112 kts | 40° |
| 2026-05-03 20:20 | 28.86556 | -13.65237 | 1976 ft | 112 kts | 33° |
| 2026-05-03 20:21 | 28.87194 | -13.64781 | 1760 ft | 107 kts | 27° |
| 2026-05-03 20:21 | 28.87848 | -13.64372 | 1497 ft | 110 kts | 23° |
| 2026-05-03 20:21 | 28.88584 | -13.63987 | 1266 ft | 121 kts | 24° |
| 2026-05-03 20:21 | 28.89330 | -13.63580 | 1111 ft | 112 kts | 25° |
| 2026-05-03 20:22 | 28.89983 | -13.63167 | 955 ft | 105 kts | 28° |
| 2026-05-03 20:22 | 28.90618 | -13.62769 | 678 ft | 112 kts | 24° |
| 2026-05-03 20:22 | 28.91304 | -13.62402 | 548 ft | 109 kts | 22° |
| 2026-05-03 20:22 | 28.92011 | -13.62002 | 405 ft | 118 kts | 21° |
| 2026-05-03 20:23 | 28.92748 | -13.61574 | 305 ft | 117 kts | 24° |
| 2026-05-03 20:23 | 28.93472 | -13.61149 | 126 ft | 117 kts | 24° |
| 2026-05-03 20:23 | 28.94162 | -13.60746 | 27 ft | 102 kts | 24° |
| 2026-05-03 20:23 | 28.94571 | -13.60512 | 33 ft | 55 kts | 31° |
| 2026-05-03 20:24 | 28.94909 | -13.60319 | 42 ft | 42 kts | 25° |
| 2026-05-03 20:24 | 28.95132 | -13.60214 | 46 ft | 29 kts | 11° |
| 2026-05-03 20:24 | 28.95306 | -13.60217 | 45 ft | 20 kts | 329° |
| 2026-05-03 20:24 | 28.95365 | -13.60328 | 45 ft | 14 kts | 298° |
| 2026-05-03 20:25 | 28.95357 | -13.60413 | 46 ft | 13 kts | 208° |
| 2026-05-03 20:25 | 28.95226 | -13.60485 | 47 ft | 27 kts | 206° |
| 2026-05-03 20:25 | 28.95128 | -13.60547 | 47 ft | 5 kts | 232° |
| 2026-05-03 20:25 | 28.95128 | -13.60572 | 47 ft | 6 kts | 284° |
| 2026-05-03 20:26 | 28.95150 | -13.60618 | 46 ft | 0 kts | 293° |